Morristown, NJ (07960)

16:59 EDT le 01 septembre 2014 (GMT -0400)
Wheatsheaf | Change Station
CLOSE
Current Station
Stations météorologiques personnelles
Location: Morristown Township, NJ
Altitude: 406 ft
Stations météo à proximité

Alt. 406 ft 40.81 °N, 74.50 °W | Updated 14 minutes ago

Mostly Cloudy
Nuageux
85.9 ° F
Paraît 93 ° F
N
0.0
Vent Variable Vent de SSE
Gusts 1.0 mph

Aujourd'hui
Haut(e) -- | Bas -- ° F
--% Risque de précip.
Hier
Haut(e) -- | Bas -- ° F
Precip. -- pouce
6:24 AM 7:30 PM
Lune montante, 44% visible
Pression 29.93 pouce
Visibilité 20.0 Miles terrestres
Nuages Nuages épars 4000 ft
Nuageux 8000 ft
indice de chaleur 93 ° F
Point de rosée 73 ° F
Humidité 66%
Précipitations 0.00 pouce
Profondeur de la couche neigeuse Non disponible.
UV 2 sur 12
Pollen 5.00 sur 12
Ozone Bon
PM2.5 Bon
Flu Activity Non disponible.
METAR KMMU 012045Z 26008KT 20SM SCT040 BKN080 31/21 A2993

More Conditions Fewer Conditions

Pression 29.93 pouce
Visibilité 20.0 Miles terrestres
Nuages Nuages épars 4000 ft
Nuageux 8000 ft
indice de chaleur 93 ° F
Point de rosée 73 ° F
Humidité 66%
Précipitations 0.00 pouce
Profondeur de la couche neigeuse Non disponible.
UV 2 sur 12
Pollen 5.00 sur 12
Ozone Bon
PM2.5 Bon
Flu Activity Non disponible.
METAR KMMU 012045Z 26008KT 20SM SCT040 BKN080 31/21 A2993

More Conditions Fewer Conditions

10-Day Weather Forecast

Almanac

Astronomie

Sep. 01, 2014 Lever Coucher
Temps réel 06:24 EDT 19:30 EDT
Crépuscule civil 05:56 EDT 19:58 EDT
Crépuscule nautique 05:23 EDT 20:31 EDT
Crépuscule astronomique 04:47 EDT 21:06 EDT
Lune 13:10 EDT 23:26 EDT
Durée de lumière visible 14h 01m
Longueur du jour
13h 05m
Tomorrow will be 2m 37s shorter.
Lune montante, 44% of the Moon is Illuminated
Aujourd'hui
Lune montante
Sep 2
Premier quartier
Sep 8
Pleine lune
Sep 15
Dernier quartier
Sep 24
Nouveau

Extrêmes aujourd'hui

State Highs State Lows

Community

WunderPhotos

Upload Photos

1,749,404 Photos téléchargées !

WunderBlogs® & News

Nearby

Qualité de l'air

  Qualité de l'air Indice de la qualité de l'air Polluant
Hier Bon
PM2.5
Hier Bon
OZONE
Actuel Bon
OZONE
Actuel Bon
PM2.5
lundi Moyen
PM2.5
lundi Bon
OZONE
mardi Moyen
OZONE
mardi Moyen
PM2.5

Épaisseur de neige

Station Depth Altitude
Pas de nouvelles chutes de neige

Activité sismique

Ville Distance Mag. Time & Date
No recent earthquake activity has been reported nearby.
Minimum magnitude displayed is 2.5.

Températures des eaux côtières

Lieu Température
Sandy Hook, NJ 77.0 ° F
The Battery, NY 75.0 ° F
Bergen Point West Reach, NJ 75.0 ° F

Stations météo à proximité